createdAt,value
2022-11-16T00:04:33.517Z,100515.19
2022-11-16T00:09:36.756Z,100529.22
2022-11-16T00:14:39.129Z,100490.91
2022-11-16T00:19:42.422Z,100540.06
2022-11-16T00:24:45.472Z,100535.28
2022-11-16T00:29:47.953Z,100529.88
2022-11-16T00:34:50.116Z,100503.88
2022-11-16T00:39:52.296Z,100537.00
2022-11-16T00:44:54.503Z,100531.63
2022-11-16T00:49:56.689Z,100492.59
2022-11-16T00:54:58.896Z,100474.53
2022-11-16T01:00:01.129Z,100499.25
2022-11-16T01:05:03.495Z,100497.22
2022-11-16T01:10:13.376Z,100508.22
2022-11-16T01:15:16.109Z,100468.56
2022-11-16T01:20:20.565Z,100493.50
2022-11-16T01:25:22.904Z,100483.81
2022-11-16T01:30:25.122Z,100457.56
2022-11-16T01:35:27.645Z,100477.13
2022-11-16T01:40:29.854Z,100440.25
2022-11-16T01:45:38.770Z,100473.81
2022-11-16T01:50:41.810Z,100472.88
2022-11-16T01:55:47.114Z,100492.59
2022-11-16T02:00:49.647Z,100480.75
2022-11-16T02:06:23.036Z,100473.06
2022-11-16T02:11:32.995Z,100470.78
2022-11-16T02:16:40.855Z,100463.63
2022-11-16T02:21:59.509Z,100432.38
2022-11-16T02:27:20.320Z,100456.75
2022-11-16T02:32:38.702Z,100430.97
2022-11-16T02:37:48.213Z,100446.13
2022-11-16T02:42:55.706Z,100410.78
2022-11-16T02:48:03.994Z,100431.22
2022-11-16T02:53:06.210Z,100429.09
2022-11-16T02:58:13.163Z,100409.94
2022-11-16T03:03:45.522Z,100420.19
2022-11-16T03:08:56.002Z,100415.66
2022-11-16T03:14:02.456Z,100418.91
2022-11-16T03:19:11.190Z,100401.72
2022-11-16T03:24:14.952Z,100385.22
2022-11-16T03:29:41.832Z,100414.25
2022-11-16T03:34:55.407Z,100408.28
2022-11-16T03:40:01.588Z,100393.94
2022-11-16T03:45:05.306Z,100402.81
2022-11-16T03:50:08.713Z,100414.38
2022-11-16T03:55:11.117Z,100366.81
2022-11-16T04:00:13.621Z,100385.91
2022-11-16T04:05:34.474Z,100373.25
2022-11-16T04:10:54.911Z,100357.84
2022-11-16T04:16:15.573Z,100356.34
2022-11-16T04:21:51.172Z,100338.69
2022-11-16T04:27:15.990Z,100381.50
2022-11-16T04:32:36.939Z,100365.19
2022-11-16T04:37:52.889Z,100343.72
2022-11-16T04:42:57.150Z,100357.22
2022-11-16T04:47:59.325Z,100348.97
2022-11-16T04:53:01.913Z,100367.13
2022-11-16T04:58:04.733Z,100376.75
2022-11-16T05:03:06.952Z,100358.13
2022-11-16T05:08:09.538Z,100342.41
2022-11-16T05:13:11.764Z,100337.53
2022-11-16T05:18:13.994Z,100382.75
2022-11-16T05:23:36.127Z,100379.44
2022-11-16T05:28:38.421Z,100382.44
2022-11-16T05:33:40.788Z,100348.47
2022-11-16T05:38:43.042Z,100339.59
2022-11-16T05:43:47.601Z,100370.22
2022-11-16T05:48:50.392Z,100381.91
2022-11-16T05:53:52.734Z,100330.91
2022-11-16T05:58:55.413Z,100327.91
2022-11-16T06:04:03.550Z,100333.91
2022-11-16T06:09:06.170Z,100389.25
2022-11-16T06:14:08.605Z,100377.81
2022-11-16T06:19:10.908Z,100375.47
2022-11-16T06:24:13.151Z,100329.53
2022-11-16T06:29:15.480Z,100359.91
2022-11-16T06:34:17.905Z,100349.56
2022-11-16T06:39:20.105Z,100337.69
2022-11-16T06:44:22.344Z,100346.88
2022-11-16T06:49:24.542Z,100340.41
2022-11-16T06:54:26.763Z,100296.41
2022-11-16T06:59:28.974Z,100300.59
2022-11-16T07:04:33.178Z,100353.38
2022-11-16T07:09:35.412Z,100342.38
2022-11-16T07:14:38.360Z,100340.25
2022-11-16T07:19:40.711Z,100326.75
2022-11-16T07:24:42.949Z,100338.22
2022-11-16T07:29:45.189Z,100284.25
2022-11-16T07:34:47.412Z,100347.00
2022-11-16T07:39:49.593Z,100320.75
2022-11-16T07:44:51.766Z,100327.09
2022-11-16T07:49:54.125Z,100303.72
2022-11-16T07:54:56.486Z,100319.53
2022-11-16T07:59:58.711Z,100277.13
2022-11-16T08:05:00.948Z,100271.22
2022-11-16T08:10:03.599Z,100328.78
2022-11-16T08:15:06.229Z,100290.88
2022-11-16T08:20:10.035Z,100283.97
2022-11-16T08:25:12.802Z,100277.63
2022-11-16T08:30:15.466Z,100297.47
2022-11-16T08:35:18.562Z,100255.38
2022-11-16T08:40:20.764Z,100322.66
2022-11-16T08:45:23.632Z,100310.81
2022-11-16T08:50:26.073Z,100312.69
2022-11-16T08:55:28.282Z,100264.06
2022-11-16T09:00:30.673Z,100280.38
2022-11-16T09:05:32.952Z,100286.69
2022-11-16T09:10:35.396Z,100228.47
2022-11-16T09:15:37.679Z,100217.16
2022-11-16T09:20:45.184Z,100215.13
2022-11-16T09:25:48.990Z,100263.47
2022-11-16T09:30:52.187Z,100256.03
2022-11-16T09:35:54.664Z,100229.13
2022-11-16T09:40:57.625Z,100243.19
2022-11-16T09:46:26.253Z,100243.59
2022-11-16T09:51:32.986Z,100201.13
2022-11-16T09:56:40.576Z,100216.25
2022-11-16T10:01:46.701Z,100209.38
2022-11-16T10:07:27.447Z,100183.84
2022-11-16T10:12:46.673Z,100178.34
2022-11-16T10:18:04.800Z,100175.59
2022-11-16T10:23:19.688Z,100156.00
2022-11-16T10:28:57.103Z,100150.56
2022-11-16T10:34:02.147Z,100134.00
2022-11-16T10:39:13.672Z,100103.91
2022-11-16T10:44:29.652Z,100108.28
2022-11-16T10:50:00.904Z,100111.84
2022-11-16T10:55:03.276Z,100047.97
2022-11-16T11:00:11.164Z,100067.28
2022-11-16T11:05:26.887Z,100086.06
2022-11-16T11:10:42.538Z,100036.59
2022-11-16T11:15:45.392Z,100072.63
2022-11-16T11:20:51.508Z,100029.72
2022-11-16T11:25:59.164Z,99937.03
2022-11-16T11:31:06.944Z,100041.91
2022-11-16T11:36:25.286Z,100031.56
2022-11-16T11:41:34.169Z,99996.53
2022-11-16T11:47:35.184Z,100016.50
2022-11-16T11:52:17.847Z,99998.72
2022-11-16T11:57:24.254Z,99944.84
2022-11-16T12:03:03.846Z,100001.72
2022-11-16T12:08:30.995Z,99976.47
2022-11-16T12:14:03.568Z,99989.59
2022-11-16T12:19:36.484Z,99981.53
2022-11-16T12:24:57.290Z,99958.63
2022-11-16T12:30:09.809Z,99967.22
2022-11-16T12:35:29.906Z,99959.50
2022-11-16T12:40:50.656Z,99918.72
2022-11-16T12:46:06.953Z,99948.56
2022-11-16T12:51:15.239Z,99947.41
2022-11-16T12:56:26.370Z,99947.28
2022-11-16T13:01:49.678Z,99941.25
2022-11-16T13:07:22.845Z,99943.19
2022-11-16T13:12:27.024Z,99929.03
2022-11-16T13:17:33.772Z,99909.41
2022-11-16T13:22:39.883Z,99864.97
2022-11-16T13:27:53.449Z,99916.78
2022-11-16T13:33:02.811Z,99933.63
2022-11-16T13:38:09.422Z,99926.34
2022-11-16T13:43:11.731Z,99931.41
2022-11-16T13:48:21.984Z,99879.00
2022-11-16T13:58:58.669Z,99866.91
2022-11-16T14:04:43.467Z,99909.34
2022-11-16T14:09:52.104Z,99860.91
2022-11-16T14:15:19.487Z,99898.25
2022-11-16T14:20:49.059Z,99891.28
2022-11-16T14:25:56.774Z,99896.69
2022-11-16T14:31:15.634Z,99856.31
2022-11-16T14:36:18.418Z,99862.25
2022-11-16T14:41:24.202Z,99897.94
2022-11-16T14:46:28.579Z,99895.25
2022-11-16T14:51:34.686Z,99892.28
2022-11-16T14:56:36.965Z,99890.50
2022-11-16T15:01:40.751Z,99885.75
2022-11-16T15:06:50.758Z,99874.75
2022-11-16T15:12:11.830Z,99889.38
2022-11-16T15:17:27.234Z,99893.88
2022-11-16T15:22:40.076Z,99894.75
2022-11-16T15:27:43.476Z,99891.03
2022-11-16T15:32:48.313Z,99861.97
2022-11-16T15:38:21.461Z,99899.16
2022-11-16T15:43:33.633Z,99848.69
2022-11-16T15:48:39.344Z,99875.72
2022-11-16T15:53:49.474Z,99892.75
2022-11-16T15:58:53.579Z,99885.50
2022-11-16T16:04:07.183Z,99883.25
2022-11-16T16:09:19.019Z,99901.34
2022-11-16T16:14:27.021Z,99890.97
2022-11-16T16:19:47.224Z,99888.28
2022-11-16T16:24:49.541Z,99850.03
2022-11-16T16:29:54.022Z,99902.34
2022-11-16T16:35:01.736Z,99892.94
2022-11-16T16:40:04.791Z,99891.97
2022-11-16T16:45:25.020Z,99874.97
2022-11-16T16:50:27.434Z,99885.78
2022-11-16T16:55:32.958Z,99894.34
2022-11-16T17:00:39.363Z,99869.13
2022-11-16T17:05:41.684Z,99802.06
2022-11-16T17:10:43.839Z,99858.69
2022-11-16T17:15:46.340Z,99863.13
2022-11-16T17:20:48.603Z,99817.44
2022-11-16T17:25:50.941Z,99843.88
2022-11-16T17:30:53.336Z,99851.44
2022-11-16T17:35:58.212Z,99878.78
2022-11-16T17:41:22.105Z,99841.94
2022-11-16T17:46:26.134Z,99839.66
2022-11-16T17:51:30.288Z,99786.06
2022-11-16T17:56:32.712Z,99822.16
2022-11-16T18:01:35.089Z,99805.84
2022-11-16T18:06:38.200Z,99862.09
2022-11-16T18:11:40.745Z,99851.91
2022-11-16T18:16:43.867Z,99843.66
2022-11-16T18:21:48.466Z,99860.81
2022-11-16T18:26:50.706Z,99861.41
2022-11-16T18:31:52.964Z,99817.56
2022-11-16T18:36:55.884Z,99809.78
2022-11-16T18:41:58.080Z,99846.25
2022-11-16T18:47:00.355Z,99842.88
2022-11-16T18:52:02.593Z,99863.84
2022-11-16T18:57:04.882Z,99822.72
2022-11-16T19:02:07.454Z,99848.03
2022-11-16T19:07:09.931Z,99868.50
2022-11-16T19:12:13.093Z,99800.22
2022-11-16T19:17:16.478Z,99837.00
2022-11-16T19:22:20.111Z,99858.38
2022-11-16T19:27:22.433Z,99845.06
2022-11-16T19:32:25.155Z,99824.38
2022-11-16T19:37:27.532Z,99833.69
2022-11-16T19:42:29.760Z,99818.00
2022-11-16T19:47:31.989Z,99842.75
2022-11-16T19:52:34.407Z,99839.84
2022-11-16T19:57:36.661Z,99782.72
2022-11-16T20:02:39.120Z,99831.59
2022-11-16T20:07:41.325Z,99810.41
2022-11-16T20:12:43.905Z,99817.88
2022-11-16T20:17:46.146Z,99789.03
2022-11-16T20:22:51.239Z,99854.59
2022-11-16T20:27:53.493Z,99804.88
2022-11-16T20:32:55.744Z,99839.34
2022-11-16T20:37:58.054Z,99788.72
2022-11-16T20:43:00.673Z,99781.56
2022-11-16T20:48:03.107Z,99797.31
2022-11-16T20:53:05.463Z,99754.69
2022-11-16T20:58:07.743Z,99821.25
2022-11-16T21:03:09.985Z,99831.84
2022-11-16T21:08:13.045Z,99788.94
2022-11-16T21:13:36.369Z,99792.63
2022-11-16T21:18:39.958Z,99789.31
2022-11-16T21:23:45.479Z,99799.03
2022-11-16T21:28:47.943Z,99770.84
2022-11-16T21:33:50.161Z,99774.16
2022-11-16T21:38:53.036Z,99753.78
2022-11-16T21:43:55.516Z,99794.38
2022-11-16T21:48:58.486Z,99785.88
2022-11-16T21:54:00.775Z,99716.50
2022-11-16T21:59:02.977Z,99718.13
2022-11-16T22:04:27.407Z,99764.13
2022-11-16T22:09:29.752Z,99762.88
2022-11-16T22:14:31.955Z,99712.59
2022-11-16T22:19:34.113Z,99760.59
2022-11-16T22:24:36.294Z,99765.72
2022-11-16T22:29:38.619Z,99709.53
2022-11-16T22:34:40.846Z,99715.22
2022-11-16T22:39:43.067Z,99713.75
2022-11-16T22:44:45.272Z,99716.28
2022-11-16T22:49:47.889Z,99715.00
2022-11-16T22:54:50.041Z,99748.31
2022-11-16T22:59:52.368Z,99730.19
2022-11-16T23:04:54.537Z,99702.34
2022-11-16T23:09:56.695Z,99708.53
2022-11-16T23:15:31.220Z,99674.53
2022-11-16T23:20:53.591Z,99715.59
2022-11-16T23:26:13.976Z,99742.38
2022-11-16T23:31:16.195Z,99677.06
2022-11-16T23:36:18.384Z,99729.16
2022-11-16T23:41:39.132Z,99722.38
2022-11-16T23:46:41.324Z,99749.25
2022-11-16T23:51:43.609Z,99713.63
2022-11-16T23:56:45.766Z,99725.78
